Time;durP1;ratioP1;P1;durP2;ratioP2;P2;SDS_P1;SDS_P2;PMS_P1;PMS_P2;Temp;Humidity;BMP_temperature;BMP_pressure;BME280_temperature;BME280_humidity;BME280_pressure;Samples;Min_cycle;Max_cycle;Signal;HPM_P1;HPM_P2
2024/04/02 00:01:41;;;;;;;;;;;;;;;10.54;62.24;96850.09;5066462;28;19924;-88
2024/04/02 00:04:30;;;;;;;;;;;;;;;10.60;62.59;96856.91;5068611;28;20051;-87
2024/04/02 00:07:16;;;;;;;;;;;;;;;10.59;62.19;96857.22;5076390;28;19961;-88
2024/04/02 00:10:04;;;;;;;;;;;;;;;10.54;62.15;96858.22;5062346;28;19924;-89
2024/04/02 00:12:51;;;;;;;;;;;;;;;10.61;62.15;96865.84;5059218;28;20042;-88
2024/04/02 00:15:38;;;;;;;;;;;;;;;10.57;61.82;96873.88;5059943;28;19970;-88
2024/04/02 00:18:27;;;;;;;;;;;;;;;10.49;62.09;96872.84;5050649;28;19924;-89
2024/04/02 00:21:14;;;;;;;;;;;;;;;10.48;62.11;96882.09;5061730;28;20044;-88
2024/04/02 00:24:01;;;;;;;;;;;;;;;10.46;61.83;96878.94;5072163;28;20034;-88
2024/04/02 00:26:48;;;;;;;;;;;;;;;10.51;61.98;96877.13;5087796;28;19928;-88
2024/04/02 00:29:35;;;;;;;;;;;;;;;10.46;62.04;96878.16;5081247;28;19977;-88
2024/04/02 00:32:21;;;;;;;;;;;;;;;10.52;61.94;96886.88;5071598;28;19984;-88
2024/04/02 00:35:10;;;;;;;;;;;;;;;10.49;62.11;96888.31;5084242;28;19932;-88
2024/04/02 00:37:56;;;;;;;;;;;;;;;10.44;62.43;96886.63;5069233;28;19939;-88
2024/04/02 00:40:44;;;;;;;;;;;;;;;10.36;62.41;96886.72;5093103;28;20042;-88
2024/04/02 00:43:31;;;;;;;;;;;;;;;10.37;62.39;96888.28;5063286;28;20635;-88
2024/04/02 00:46:20;;;;;;;;;;;;;;;10.40;62.43;96883.00;5074053;28;19934;-88
2024/04/02 00:49:08;;;;;;;;;;;;;;;10.43;62.08;96889.66;5096476;28;19923;-88
2024/04/02 00:51:56;;;;;;;;;;;;;;;10.38;62.46;96900.72;5086816;28;19924;-88
2024/04/02 00:54:42;;;;;;;;;;;;;;;10.38;62.14;96900.72;5055383;28;20581;-88
2024/04/02 00:57:29;;;;;;;;;;;;;;;10.29;62.33;96914.41;5065542;28;19934;-88
2024/04/02 01:00:17;;;;;;;;;;;;;;;10.33;62.45;96912.59;5059177;28;20015;-89
2024/04/02 01:03:04;;;;;;;;;;;;;;;10.36;62.44;96909.22;5059901;28;20065;-89
2024/04/02 01:05:52;;;;;;;;;;;;;;;10.35;62.27;96921.22;5088274;28;20013;-88
2024/04/02 01:08:39;;;;;;;;;;;;;;;10.31;62.28;96917.56;5069453;28;19924;-89
2024/04/02 01:11:27;;;;;;;;;;;;;;;10.23;62.43;96919.25;5075297;28;20002;-88
2024/04/02 01:14:13;;;;;;;;;;;;;;;10.25;62.56;96927.06;5057283;28;19978;-88
2024/04/02 01:17:00;;;;;;;;;;;;;;;10.20;62.85;96929.94;5073159;28;19928;-88
2024/04/02 01:19:47;;;;;;;;;;;;;;;10.24;62.54;96933.63;5053502;28;20239;-88
2024/04/02 01:22:35;;;;;;;;;;;;;;;10.25;62.53;96937.91;5061527;28;19924;-88
2024/04/02 01:25:23;;;;;;;;;;;;;;;10.22;62.65;96943.97;5083956;28;20401;-89
2024/04/02 01:28:11;;;;;;;;;;;;;;;10.23;62.55;96940.16;5063194;28;19928;-89
2024/04/02 01:30:57;;;;;;;;;;;;;;;10.21;62.43;96948.59;5069917;28;19931;-89
2024/04/02 01:33:45;;;;;;;;;;;;;;;10.17;62.58;96955.84;5084981;28;19931;-88
2024/04/02 01:36:32;;;;;;;;;;;;;;;10.14;62.65;96958.41;5072499;28;19935;-88
2024/04/02 01:39:18;;;;;;;;;;;;;;;10.16;62.63;96961.56;5080672;28;20363;-87
2024/04/02 01:42:07;;;;;;;;;;;;;;;10.21;62.29;96964.88;5085641;28;19924;-88
2024/04/02 01:44:54;;;;;;;;;;;;;;;10.17;62.45;96968.59;5074832;28;20306;-88
2024/04/02 01:47:40;;;;;;;;;;;;;;;10.18;62.30;96975.63;5086871;28;19923;-88
2024/04/02 01:50:28;;;;;;;;;;;;;;;10.16;62.44;96983.28;5063187;28;19985;-88
2024/04/02 01:53:14;;;;;;;;;;;;;;;10.14;62.46;96985.56;5067536;28;20031;-88
2024/04/02 01:56:01;;;;;;;;;;;;;;;10.19;62.29;96982.63;5093257;28;19925;-88
2024/04/02 01:58:51;;;;;;;;;;;;;;;10.14;62.17;96990.97;5073658;28;19924;-88
2024/04/02 02:04:49;;;;;;;;;;;;;;;10.05;62.27;96990.22;5092552;28;19930;-88
2024/04/02 02:07:36;;;;;;;;;;;;;;;10.07;62.34;97001.56;5080688;28;20003;-88
2024/04/02 02:10:23;;;;;;;;;;;;;;;9.97;62.66;96994.59;5066915;28;19928;-88
2024/04/02 02:13:10;;;;;;;;;;;;;;;9.93;62.66;97001.81;5075537;28;19931;-88
2024/04/02 02:15:59;;;;;;;;;;;;;;;9.90;62.65;97002.47;5092699;28;19923;-88
2024/04/02 02:18:45;;;;;;;;;;;;;;;9.98;62.51;97004.34;5049540;28;19932;-87
2024/04/02 02:21:32;;;;;;;;;;;;;;;9.90;62.65;97005.97;5062624;28;19924;-88
2024/04/02 02:24:18;;;;;;;;;;;;;;;9.95;62.49;97005.78;5062725;28;19924;-86
2024/04/02 02:27:05;;;;;;;;;;;;;;;9.88;62.64;97018.28;5086877;28;19931;-85
2024/04/02 02:29:52;;;;;;;;;;;;;;;9.89;62.72;97022.56;5092033;28;19991;-86
2024/04/02 02:32:40;;;;;;;;;;;;;;;9.89;62.77;97028.78;5073051;28;20395;-88
2024/04/02 02:35:26;;;;;;;;;;;;;;;9.80;62.94;97038.91;5075221;28;19930;-88
2024/04/02 02:38:13;;;;;;;;;;;;;;;9.92;62.74;97028.16;5070028;28;19931;-89
2024/04/02 02:41:01;;;;;;;;;;;;;;;10.02;62.60;97034.34;5066651;28;19924;-88
2024/04/02 02:43:48;;;;;;;;;;;;;;;10.02;62.22;97031.63;5085093;28;19924;-88
2024/04/02 02:46:35;;;;;;;;;;;;;;;10.04;62.35;97040.22;5085767;28;20286;-88
2024/04/02 02:49:22;;;;;;;;;;;;;;;10.07;61.99;97051.22;5061773;28;19924;-87
2024/04/02 02:52:10;;;;;;;;;;;;;;;9.95;62.33;97043.75;5071965;28;19931;-88
2024/04/02 02:54:56;;;;;;;;;;;;;;;9.87;62.45;97054.69;5072115;28;19928;-88
2024/04/02 02:57:44;;;;;;;;;;;;;;;9.81;62.66;97054.06;5059573;28;20284;-89
2024/04/02 03:00:30;;;;;;;;;;;;;;;9.87;62.59;97057.38;5076495;28;20014;-89
2024/04/02 03:03:17;;;;;;;;;;;;;;;9.87;62.41;97051.97;5051886;28;20375;-88
2024/04/02 03:06:05;;;;;;;;;;;;;;;9.85;62.34;97060.41;5062852;28;19959;-88
2024/04/02 03:08:52;;;;;;;;;;;;;;;9.92;62.20;97065.34;5068389;28;20480;-88
2024/04/02 03:11:39;;;;;;;;;;;;;;;9.92;62.34;97066.13;5055908;28;19924;-88
2024/04/02 03:14:26;;;;;;;;;;;;;;;9.99;62.03;97071.03;5060945;28;19928;-89
2024/04/02 03:17:15;;;;;;;;;;;;;;;9.97;62.01;97071.38;5065685;28;19928;-89
2024/04/02 03:20:04;;;;;;;;;;;;;;;9.88;62.64;97076.03;5071434;28;19942;-89
2024/04/02 03:22:54;;;;;;;;;;;;;;;9.79;62.97;97083.41;5086523;28;19925;-88
2024/04/02 03:25:42;;;;;;;;;;;;;;;9.69;62.93;97079.19;5068294;28;19925;-88
2024/04/02 03:28:30;;;;;;;;;;;;;;;9.70;63.17;97082.69;5051158;28;20295;-88
2024/04/02 03:31:17;;;;;;;;;;;;;;;9.65;63.03;97089.06;5091007;28;19928;-89
2024/04/02 03:34:04;;;;;;;;;;;;;;;9.73;62.99;97092.06;5056592;28;19939;-89
2024/04/02 03:36:52;;;;;;;;;;;;;;;9.70;62.92;97102.47;5066406;28;19932;-89
2024/04/02 03:39:40;;;;;;;;;;;;;;;9.76;63.06;97099.56;5059754;28;19924;-88
2024/04/02 03:42:27;;;;;;;;;;;;;;;9.77;62.74;97101.16;5078655;28;19924;-89
2024/04/02 03:45:15;;;;;;;;;;;;;;;9.73;62.52;97111.84;5059472;28;19928;-88
2024/04/02 03:48:02;;;;;;;;;;;;;;;9.67;62.72;97105.00;5066642;28;19932;-89
2024/04/02 03:50:48;;;;;;;;;;;;;;;9.61;63.05;97106.31;5070358;28;19973;-87
2024/04/02 03:53:36;;;;;;;;;;;;;;;9.60;63.03;97107.44;5058398;28;19928;-88
2024/04/02 03:56:25;;;;;;;;;;;;;;;9.60;63.01;97112.88;5073547;28;19928;-88
2024/04/02 03:59:12;;;;;;;;;;;;;;;9.61;63.13;97107.13;5084501;28;19939;-88
2024/04/02 04:01:59;;;;;;;;;;;;;;;9.63;63.16;97106.78;5073338;28;19975;-89
2024/04/02 04:04:46;;;;;;;;;;;;;;;9.62;63.05;97113.34;5077261;28;20378;-89
2024/04/02 04:07:33;;;;;;;;;;;;;;;9.77;62.86;97118.22;5084905;28;19927;-89
2024/04/02 04:10:21;;;;;;;;;;;;;;;9.76;62.70;97122.06;5077643;28;20276;-89
2024/04/02 04:13:08;;;;;;;;;;;;;;;9.85;62.58;97119.28;5057061;28;19924;-89
2024/04/02 04:15:56;;;;;;;;;;;;;;;9.90;62.28;97117.19;5083706;28;20367;-89
2024/04/02 04:18:43;;;;;;;;;;;;;;;10.04;61.94;97122.41;5062305;28;19950;-89
2024/04/02 04:21:30;;;;;;;;;;;;;;;10.09;61.65;97126.88;5065458;28;20754;-89
2024/04/02 04:24:16;;;;;;;;;;;;;;;10.22;61.19;97129.34;5057363;28;19923;-87
2024/04/02 04:27:04;;;;;;;;;;;;;;;10.30;60.97;97129.66;5066681;28;20008;-89
2024/04/02 04:29:52;;;;;;;;;;;;;;;10.40;60.65;97129.28;5069273;28;19924;-88
2024/04/02 04:32:40;;;;;;;;;;;;;;;10.36;60.81;97129.13;5065383;28;20379;-88
2024/04/02 04:35:26;;;;;;;;;;;;;;;10.45;60.48;97138.03;5065864;28;19967;-88
2024/04/02 04:38:13;;;;;;;;;;;;;;;10.68;59.94;97135.00;5085630;28;19947;-89
2024/04/02 04:41:00;;;;;;;;;;;;;;;10.55;60.06;97141.50;5072513;28;19924;-89
2024/04/02 04:43:47;;;;;;;;;;;;;;;10.71;59.82;97142.50;5079431;28;19947;-89
2024/04/02 04:46:36;;;;;;;;;;;;;;;10.73;59.69;97145.69;5089520;28;19988;-89
2024/04/02 04:49:22;;;;;;;;;;;;;;;10.74;59.73;97147.25;5072198;28;20003;-89
2024/04/02 04:52:10;;;;;;;;;;;;;;;10.57;60.10;97150.09;5052000;28;20365;-89
2024/04/02 04:54:56;;;;;;;;;;;;;;;10.41;60.33;97155.31;5079340;28;19982;-89
2024/04/02 04:57:43;;;;;;;;;;;;;;;10.52;60.30;97148.38;5069717;28;20298;-89
2024/04/02 05:00:29;;;;;;;;;;;;;;;10.60;60.19;97154.84;5078903;28;19924;-89
2024/04/02 05:03:18;;;;;;;;;;;;;;;10.70;59.87;97157.97;5076354;28;19935;-90
2024/04/02 05:06:05;;;;;;;;;;;;;;;10.64;59.83;97161.22;5066690;28;19923;-90
2024/04/02 05:08:52;;;;;;;;;;;;;;;10.68;59.94;97162.16;5062823;28;19977;-92
2024/04/02 05:11:39;;;;;;;;;;;;;;;10.68;59.93;97162.16;5073575;28;20405;-93
2024/04/02 05:14:27;;;;;;;;;;;;;;;10.67;60.00;97168.72;5078620;28;20039;-91
2024/04/02 05:17:13;;;;;;;;;;;;;;;10.73;59.83;97176.34;5073795;28;19928;-92
2024/04/02 05:20:04;;;;;;;;;;;;;;;10.71;59.86;97178.63;5058930;28;20383;-96
2024/04/02 05:22:51;;;;;;;;;;;;;;;10.74;59.55;97182.59;5072049;28;19928;-95
2024/04/02 05:25:41;;;;;;;;;;;;;;;10.73;59.66;97183.72;5083104;28;19923;-96
2024/04/02 05:28:27;;;;;;;;;;;;;;;10.78;59.41;97191.66;5065565;28;19924;-94
2024/04/02 05:31:15;;;;;;;;;;;;;;;10.95;58.85;97186.09;5064798;28;19935;-93
2024/04/02 05:34:01;;;;;;;;;;;;;;;11.05;58.78;97198.50;5078933;28;19928;-89
2024/04/02 05:36:50;;;;;;;;;;;;;;;10.97;58.76;97202.06;5065831;28;19959;-88
2024/04/02 05:39:36;;;;;;;;;;;;;;;10.89;59.45;97203.75;5069323;28;20387;-88
2024/04/02 05:42:23;;;;;;;;;;;;;;;10.99;59.03;97199.84;5061959;28;19973;-89
2024/04/02 05:45:09;;;;;;;;;;;;;;;11.07;58.69;97207.13;5064820;28;20369;-88
2024/04/02 05:47:57;;;;;;;;;;;;;;;11.12;58.90;97203.41;5052276;28;19928;-89
2024/04/02 05:50:46;;;;;;;;;;;;;;;11.20;58.47;97205.28;5057472;28;19932;-87
2024/04/02 05:53:35;;;;;;;;;;;;;;;11.21;58.64;97196.00;5056886;28;19947;-88
2024/04/02 05:56:21;;;;;;;;;;;;;;;11.09;58.86;97207.59;5059634;28;19932;-88
2024/04/02 05:59:09;;;;;;;;;;;;;;;11.26;58.47;97209.38;5070418;28;19950;-88
2024/04/02 06:01:55;;;;;;;;;;;;;;;11.08;58.69;97214.16;5056905;28;20435;-89
2024/04/02 06:04:42;;;;;;;;;;;;;;;11.08;58.75;97207.91;5056404;28;20382;-88
2024/04/02 06:07:28;;;;;;;;;;;;;;;11.07;58.34;97206.31;5086934;28;19930;-87
2024/04/02 06:10:19;;;;;;;;;;;;;;;10.89;58.28;97208.38;5076834;28;19924;-86
2024/04/02 06:13:06;;;;;;;;;;;;;;;10.99;58.11;97222.38;5075671;28;19931;-90
2024/04/02 06:15:56;;;;;;;;;;;;;;;11.17;57.89;97222.25;5065373;28;20443;-96
2024/04/02 06:18:43;;;;;;;;;;;;;;;10.97;58.10;97226.53;5063204;28;19924;-88
2024/04/02 06:21:30;;;;;;;;;;;;;;;11.00;58.96;97223.16;5055214;28;19932;-88
2024/04/02 06:24:16;;;;;;;;;;;;;;;10.88;59.12;97223.91;5051660;28;19924;-89
2024/04/02 06:27:06;;;;;;;;;;;;;;;11.00;58.26;97231.31;5084381;28;19932;-90
2024/04/02 06:29:53;;;;;;;;;;;;;;;10.86;58.51;97244.34;5052202;28;19986;-90
2024/04/02 06:32:43;;;;;;;;;;;;;;;10.80;58.30;97245.66;5061223;28;19928;-90
2024/04/02 06:35:30;;;;;;;;;;;;;;;10.88;58.45;97242.91;5061815;28;19924;-90
2024/04/02 06:38:17;;;;;;;;;;;;;;;10.86;58.48;97245.16;5060358;28;20353;-89
2024/04/02 06:41:04;;;;;;;;;;;;;;;10.86;58.16;97244.34;5058150;28;19924;-90
2024/04/02 06:43:52;;;;;;;;;;;;;;;10.83;58.42;97258.63;5080671;28;19931;-95
2024/04/02 06:46:39;;;;;;;;;;;;;;;10.78;59.50;97253.38;5056972;28;19925;-89
2024/04/02 06:49:25;;;;;;;;;;;;;;;10.66;60.79;97257.59;5074182;28;20383;-88
2024/04/02 06:52:12;;;;;;;;;;;;;;;10.63;61.78;97252.00;5074067;28;19924;-91
2024/04/02 06:54:59;;;;;;;;;;;;;;;10.77;61.41;97258.00;5079189;28;19924;-93
2024/04/02 06:57:46;;;;;;;;;;;;;;;10.77;61.22;97265.38;5059093;28;19950;-90
2024/04/02 07:00:36;;;;;;;;;;;;;;;10.63;60.72;97265.59;5076876;28;19924;-91
2024/04/02 07:03:22;;;;;;;;;;;;;;;10.68;61.86;97270.84;5072725;28;19931;-92
2024/04/02 07:06:10;;;;;;;;;;;;;;;10.75;61.78;97266.47;5062026;28;20398;-91
2024/04/02 07:08:58;;;;;;;;;;;;;;;10.70;61.29;97269.38;5057225;28;19935;-93
2024/04/02 07:11:45;;;;;;;;;;;;;;;10.77;60.96;97274.31;5079291;28;19928;-94
2024/04/02 07:14:32;;;;;;;;;;;;;;;10.72;61.15;97277.22;5068611;28;19924;-92
2024/04/02 07:17:20;;;;;;;;;;;;;;;10.62;61.54;97272.16;5049733;28;19928;-92
2024/04/02 07:20:07;;;;;;;;;;;;;;;10.66;61.76;97275.81;5057315;28;20023;-93
2024/04/02 07:22:54;;;;;;;;;;;;;;;10.61;62.60;97276.00;5063565;28;19947;-94
2024/04/02 07:25:40;;;;;;;;;;;;;;;10.63;62.13;97279.16;5068643;28;19982;-94
2024/04/02 07:28:28;;;;;;;;;;;;;;;10.80;62.46;97276.34;5058927;28;20247;-92
2024/04/02 07:31:14;;;;;;;;;;;;;;;10.86;61.53;97285.91;5069296;28;19928;-93
2024/04/02 07:34:03;;;;;;;;;;;;;;;10.78;62.34;97297.63;5067781;28;19923;-93
2024/04/02 07:36:49;;;;;;;;;;;;;;;10.74;62.13;97285.81;5067813;28;20248;-94
2024/04/02 07:39:36;;;;;;;;;;;;;;;10.68;61.94;97289.84;5060295;28;19928;-91
2024/04/02 07:42:24;;;;;;;;;;;;;;;10.73;62.80;97289.66;5064094;28;20386;-91
2024/04/02 07:45:15;;;;;;;;;;;;;;;10.83;61.94;97302.09;5064766;28;19988;-92
2024/04/02 07:48:02;;;;;;;;;;;;;;;10.72;62.14;97305.19;5065395;28;20003;-91
2024/04/02 07:50:50;;;;;;;;;;;;;;;10.83;61.74;97311.03;5076374;28;19930;-95
2024/04/02 07:53:37;;;;;;;;;;;;;;;10.70;61.32;97315.56;5064068;28;20453;-93
2024/04/02 07:56:24;;;;;;;;;;;;;;;10.71;62.41;97319.09;5071282;28;20003;-92
2024/04/02 07:59:10;;;;;;;;;;;;;;;10.62;63.08;97326.47;5070725;28;19928;-92
2024/04/02 08:01:58;;;;;;;;;;;;;;;10.53;63.13;97331.13;5046222;28;19931;-93
2024/04/02 08:04:44;;;;;;;;;;;;;;;10.57;64.06;97332.09;5057645;28;19935;-92
2024/04/02 08:07:33;;;;;;;;;;;;;;;10.64;63.83;97333.16;5065130;28;19924;-92
2024/04/02 08:10:22;;;;;;;;;;;;;;;10.66;62.76;97322.00;5066960;28;19923;-91
2024/04/02 08:13:09;;;;;;;;;;;;;;;10.73;62.82;97322.28;5090533;28;19924;-92
2024/04/02 08:15:55;;;;;;;;;;;;;;;10.93;61.40;97321.53;5083783;28;19936;-91
2024/04/02 08:18:43;;;;;;;;;;;;;;;11.04;60.88;97327.41;5074803;28;19924;-91
2024/04/02 08:21:30;;;;;;;;;;;;;;;11.15;60.12;97330.53;5062127;28;19924;-89
2024/04/02 08:24:18;;;;;;;;;;;;;;;11.22;59.30;97333.53;5063582;28;20022;-89
2024/04/02 08:27:05;;;;;;;;;;;;;;;11.26;58.42;97340.69;5044896;28;19928;-89
2024/04/02 08:29:51;;;;;;;;;;;;;;;11.21;58.64;97350.97;5076506;28;19924;-90
2024/04/02 08:32:38;;;;;;;;;;;;;;;11.02;58.64;97354.91;5074428;28;20394;-89
2024/04/02 08:35:29;;;;;;;;;;;;;;;10.92;60.21;97362.59;5078978;28;20060;-89
2024/04/02 08:38:15;;;;;;;;;;;;;;;10.94;60.84;97365.81;5084055;28;19936;-86
2024/04/02 08:41:04;;;;;;;;;;;;;;;11.00;62.12;97370.72;5082584;28;19927;-88
2024/04/02 08:43:50;;;;;;;;;;;;;;;10.78;63.58;97386.50;5093967;28;19924;-89
2024/04/02 08:46:37;;;;;;;;;;;;;;;10.82;64.50;97390.97;5083488;28;20319;-89
2024/04/02 08:49:24;;;;;;;;;;;;;;;10.84;65.19;97396.06;5071706;28;19923;-90
2024/04/02 08:52:11;;;;;;;;;;;;;;;10.65;65.38;97399.97;5060321;28;19930;-89
2024/04/02 08:54:57;;;;;;;;;;;;;;;10.65;65.78;97410.00;5058070;28;19931;-89
2024/04/02 08:57:46;;;;;;;;;;;;;;;10.50;66.60;97411.34;5072578;28;20418;-90
2024/04/02 09:00:32;;;;;;;;;;;;;;;10.56;67.35;97417.41;5078968;28;19931;-89
2024/04/02 09:03:20;;;;;;;;;;;;;;;10.51;67.71;97414.88;5066251;28;20339;-90
2024/04/02 09:06:06;;;;;;;;;;;;;;;10.49;68.19;97423.31;5074867;28;19924;-89
2024/04/02 09:08:56;;;;;;;;;;;;;;;10.57;68.46;97432.56;5084365;28;19931;-89
2024/04/02 09:11:42;;;;;;;;;;;;;;;10.47;67.59;97422.84;5060530;28;20022;-90
2024/04/02 09:14:31;;;;;;;;;;;;;;;10.51;67.05;97423.00;5071777;28;20080;-89
2024/04/02 09:17:17;;;;;;;;;;;;;;;10.51;65.34;97423.00;5101088;28;19923;-89
2024/04/02 09:20:05;;;;;;;;;;;;;;;10.44;65.74;97426.22;5082796;28;20394;-89
2024/04/02 09:22:53;;;;;;;;;;;;;;;10.49;65.42;97442.31;5068766;28;19947;-90
2024/04/02 09:25:40;;;;;;;;;;;;;;;10.35;64.82;97442.53;5080168;28;19963;-92
2024/04/02 09:28:28;;;;;;;;;;;;;;;10.36;64.93;97438.69;5072819;28;19977;-91
2024/04/02 09:31:16;;;;;;;;;;;;;;;10.36;65.13;97446.81;5072111;28;19939;-92
2024/04/02 09:34:06;;;;;;;;;;;;;;;10.33;64.40;97433.88;5083881;28;20555;-91
2024/04/02 09:36:53;;;;;;;;;;;;;;;10.44;64.78;97446.03;5081295;28;19924;-92
2024/04/02 09:39:40;;;;;;;;;;;;;;;10.66;63.98;97442.31;5056981;28;19973;-89
2024/04/02 09:42:26;;;;;;;;;;;;;;;10.82;63.54;97439.88;5065374;28;19924;-90
2024/04/02 09:45:14;;;;;;;;;;;;;;;10.97;63.11;97435.81;5072475;28;19924;-89
2024/04/02 09:48:01;;;;;;;;;;;;;;;11.04;62.38;97440.78;5094597;28;19974;-89
2024/04/02 09:50:49;;;;;;;;;;;;;;;11.19;62.97;97440.22;5084138;28;19924;-88
2024/04/02 09:53:36;;;;;;;;;;;;;;;11.39;61.79;97428.59;5071461;28;20057;-89
2024/04/02 09:56:27;;;;;;;;;;;;;;;11.21;61.10;97435.25;5071622;28;19935;-89
2024/04/02 09:59:13;;;;;;;;;;;;;;;11.35;61.38;97435.84;5066390;28;19968;-89
2024/04/02 10:02:00;;;;;;;;;;;;;;;11.27;60.91;97439.38;5067110;28;19931;-90
2024/04/02 10:04:50;;;;;;;;;;;;;;;11.27;59.47;97439.38;5058140;28;19924;-89
2024/04/02 10:07:40;;;;;;;;;;;;;;;11.33;58.68;97451.66;5071504;28;20007;-90
2024/04/02 10:10:27;;;;;;;;;;;;;;;11.27;57.38;97444.81;5061155;28;19999;-89
2024/04/02 10:13:15;;;;;;;;;;;;;;;11.16;58.34;97438.94;5079609;28;19999;-89
2024/04/02 10:16:05;;;;;;;;;;;;;;;11.15;57.26;97447.44;5060224;28;20371;-88
2024/04/02 10:18:56;;;;;;;;;;;;;;;11.20;56.84;97447.25;5058859;28;19924;-89
2024/04/02 10:21:45;;;;;;;;;;;;;;;11.19;56.47;97449.19;5065830;28;19986;-89
2024/04/02 10:24:32;;;;;;;;;;;;;;;11.13;55.71;97445.06;5068851;28;19924;-88
2024/04/02 10:27:19;;;;;;;;;;;;;;;11.05;56.24;97453.22;5059045;28;19932;-89
2024/04/02 10:30:14;;;;;;;;;;;;;;;11.15;56.52;97447.44;5064264;28;20019;-92
2024/04/02 10:33:01;;;;;;;;;;;;;;;11.35;55.85;97443.19;5061780;28;20260;-88
2024/04/02 10:35:47;;;;;;;;;;;;;;;11.46;54.82;97431.63;5057219;28;20019;-90
2024/04/02 10:38:36;;;;;;;;;;;;;;;11.54;53.86;97432.69;5076174;28;19924;-89
2024/04/02 10:41:22;;;;;;;;;;;;;;;11.67;53.46;97439.03;5063255;28;19961;-90
2024/04/02 10:44:09;;;;;;;;;;;;;;;11.73;53.77;97434.97;5067381;28;19924;-89
2024/04/02 10:46:56;;;;;;;;;;;;;;;11.78;53.60;97432.06;5065612;28;19932;-91
2024/04/02 10:49:46;;;;;;;;;;;;;;;11.79;53.52;97434.44;5060281;28;19934;-89
2024/04/02 10:52:36;;;;;;;;;;;;;;;11.68;54.09;97444.13;5059970;28;20446;-89
2024/04/02 10:55:25;;;;;;;;;;;;;;;11.52;55.05;97440.38;5076314;28;19923;-88
2024/04/02 10:58:11;;;;;;;;;;;;;;;11.71;54.73;97437.22;5064276;28;20010;-89
2024/04/02 11:00:58;;;;;;;;;;;;;;;11.83;54.61;97440.06;5062041;28;19924;-89
2024/04/02 11:03:44;;;;;;;;;;;;;;;11.92;54.53;97432.63;5063999;28;19934;-89
2024/04/02 11:06:31;;;;;;;;;;;;;;;12.01;53.40;97433.34;5062222;28;19924;-89
2024/04/02 11:09:18;;;;;;;;;;;;;;;11.94;52.13;97426.88;5075768;28;20341;-89
2024/04/02 11:12:07;;;;;;;;;;;;;;;11.79;51.34;97437.16;5096801;28;19930;-88
2024/04/02 11:14:55;;;;;;;;;;;;;;;11.82;51.41;97430.28;5080897;28;19931;-89
2024/04/02 11:17:43;;;;;;;;;;;;;;;12.02;51.55;97425.97;5081726;28;19927;-88
2024/04/02 11:20:32;;;;;;;;;;;;;;;12.01;51.42;97408.84;5054083;28;19924;-88
2024/04/02 11:26:27;;;;;;;;;;;;;;;12.07;49.33;97410.25;5080552;28;19932;-88
2024/04/02 11:29:16;;;;;;;;;;;;;;;12.17;48.89;97413.69;5082705;28;19923;-90
2024/04/02 11:32:02;;;;;;;;;;;;;;;12.32;48.41;97416.59;5068189;28;19924;-89
2024/04/02 11:35:00;;;;;;;;;;;;;;;12.53;48.01;97413.06;5084818;28;19945;-88
2024/04/02 11:37:46;;;;;;;;;;;;;;;12.48;47.69;97440.50;5056560;28;19951;-90
2024/04/02 11:40:33;;;;;;;;;;;;;;;12.49;47.94;97421.09;5057804;28;19977;-89
2024/04/02 11:43:19;;;;;;;;;;;;;;;12.61;47.69;97417.59;5080297;28;19967;-89
2024/04/02 11:46:08;;;;;;;;;;;;;;;12.78;47.27;97412.00;5075841;28;19924;-87
2024/04/02 11:48:54;;;;;;;;;;;;;;;12.89;46.29;97415.06;5077863;28;19924;-88
2024/04/02 11:51:42;;;;;;;;;;;;;;;12.99;45.31;97411.88;5067690;28;19924;-89
2024/04/02 11:54:30;;;;;;;;;;;;;;;12.96;47.60;97418.03;5057927;28;19931;-89
2024/04/02 12:00:23;;;;;;;;;;;;;;;13.03;48.24;97418.25;5069341;28;19924;-90
2024/04/02 12:03:12;;;;;;;;;;;;;;;12.99;48.08;97414.59;5062458;28;19931;-86
2024/04/02 12:05:59;;;;;;;;;;;;;;;13.16;48.02;97412.84;5076762;28;19932;-87
2024/04/02 12:08:47;;;;;;;;;;;;;;;13.10;47.05;97421.25;5055766;28;19934;-87
2024/04/02 12:11:33;;;;;;;;;;;;;;;13.11;43.90;97406.47;5073909;28;19924;-86
2024/04/02 12:14:20;;;;;;;;;;;;;;;13.33;43.56;97409.91;5063288;28;20221;-86
2024/04/02 12:17:06;;;;;;;;;;;;;;;13.43;43.03;97401.28;5068484;28;19951;-87
2024/04/02 12:19:56;;;;;;;;;;;;;;;13.48;41.74;97403.78;5079407;28;20418;-89
2024/04/02 12:22:42;;;;;;;;;;;;;;;13.43;41.29;97423.09;5087970;28;19972;-89
2024/04/02 12:25:29;;;;;;;;;;;;;;;13.36;41.30;97390.91;5085025;28;19923;-88
2024/04/02 12:28:17;;;;;;;;;;;;;;;13.45;41.73;97400.91;5081249;28;19928;-89
2024/04/02 12:31:04;;;;;;;;;;;;;;;13.57;41.83;97412.59;5090624;28;19924;-89
2024/04/02 12:33:50;;;;;;;;;;;;;;;13.57;41.51;97411.81;5087227;28;20318;-89
2024/04/02 12:36:40;;;;;;;;;;;;;;;13.59;41.56;97407.63;5102199;28;19931;-90
2024/04/02 12:39:26;;;;;;;;;;;;;;;13.63;42.17;97405.81;5056111;28;20069;-87
2024/04/02 12:42:15;;;;;;;;;;;;;;;13.63;42.26;97414.00;5084314;28;19932;-88
2024/04/02 12:45:01;;;;;;;;;;;;;;;13.56;41.97;97408.28;5069351;28;20065;-87
2024/04/02 12:47:49;;;;;;;;;;;;;;;13.53;43.43;97451.84;5061503;28;20569;-87
2024/04/02 12:50:35;;;;;;;;;;;;;;;13.11;46.58;97431.00;5082560;28;19997;-87
2024/04/02 12:53:24;;;;;;;;;;;;;;;13.07;45.10;97432.81;5062722;28;20298;-92
2024/04/02 12:56:10;;;;;;;;;;;;;;;13.05;45.50;97435.09;5083326;28;20337;-90
2024/04/02 12:58:57;;;;;;;;;;;;;;;13.02;44.91;97424.84;5071832;28;19982;-90
2024/04/02 13:01:45;;;;;;;;;;;;;;;13.04;45.28;97433.47;5073862;28;19924;-90
2024/04/02 13:04:32;;;;;;;;;;;;;;;13.14;45.57;97431.44;5066464;28;19931;-89
2024/04/02 13:07:19;;;;;;;;;;;;;;;13.18;46.01;97421.47;5081509;28;19928;-89
2024/04/02 13:10:07;;;;;;;;;;;;;;;13.25;45.35;97422.50;5065037;28;19934;-87
2024/04/02 13:12:55;;;;;;;;;;;;;;;13.20;45.27;97435.53;5067611;28;19931;-87
2024/04/02 13:15:41;;;;;;;;;;;;;;;13.22;44.32;97425.94;5065289;28;19931;-88
2024/04/02 13:18:29;;;;;;;;;;;;;;;13.30;44.56;97424.22;5067567;28;19924;-88
2024/04/02 13:21:16;;;;;;;;;;;;;;;13.40;44.98;97425.72;5082046;28;20524;-87
2024/04/02 13:24:04;;;;;;;;;;;;;;;13.50;45.93;97434.22;5066322;28;19924;-91
2024/04/02 13:26:52;;;;;;;;;;;;;;;13.38;45.66;97428.00;5069397;28;19924;-90
2024/04/02 13:29:39;;;;;;;;;;;;;;;13.26;45.37;97423.31;5067206;28;19924;-94
2024/04/02 13:32:26;;;;;;;;;;;;;;;13.06;45.43;97431.22;5060387;28;19964;-89
2024/04/02 13:35:17;;;;;;;;;;;;;;;13.07;46.44;97438.28;5067965;28;19924;-92
2024/04/02 13:38:04;;;;;;;;;;;;;;;13.00;46.13;97438.03;5066556;28;19923;-94
2024/04/02 13:40:52;;;;;;;;;;;;;;;13.09;46.42;97436.00;5066124;28;20154;-92
2024/04/02 13:43:39;;;;;;;;;;;;;;;13.18;46.42;97438.63;5060830;28;19924;-89
2024/04/02 13:46:27;;;;;;;;;;;;;;;13.10;46.63;97431.31;5061733;28;19931;-88
2024/04/02 13:49:13;;;;;;;;;;;;;;;12.97;47.36;97438.72;5059533;28;19939;-95
2024/04/02 13:52:01;;;;;;;;;;;;;;;12.99;46.57;97424.72;5077369;28;19928;-92
2024/04/02 13:54:48;;;;;;;;;;;;;;;13.00;46.08;97426.34;5064375;28;19932;-91
2024/04/02 13:57:35;;;;;;;;;;;;;;;13.05;45.84;97423.41;5063370;28;20160;-95
2024/04/02 14:00:25;;;;;;;;;;;;;;;13.03;44.45;97425.66;5075567;28;20022;-88
2024/04/02 14:03:13;;;;;;;;;;;;;;;13.08;44.57;97415.31;5064487;28;20363;-89
2024/04/02 14:06:00;;;;;;;;;;;;;;;13.13;44.24;97418.97;5080612;28;19986;-93
2024/04/02 14:08:48;;;;;;;;;;;;;;;13.11;44.41;97433.75;5089247;28;19938;-94
2024/04/02 14:11:35;;;;;;;;;;;;;;;13.09;44.02;97427.81;5072716;28;19924;-96
2024/04/02 14:14:47;;;;;;;;;;;;;;;13.07;43.71;97415.66;5087928;28;19944;-87
2024/04/02 14:17:36;;;;;;;;;;;;;;;13.20;44.07;97408.28;5064736;28;19924;-87
2024/04/02 14:20:24;;;;;;;;;;;;;;;13.32;43.56;97411.84;5072946;28;20123;-86
2024/04/02 14:23:10;;;;;;;;;;;;;;;13.38;43.13;97420.59;5076334;28;19972;-86
2024/04/02 14:25:57;;;;;;;;;;;;;;;13.45;43.02;97407.16;5077089;28;20407;-86
2024/04/02 14:28:44;;;;;;;;;;;;;;;13.40;42.97;97410.13;5051790;28;19924;-88
2024/04/02 14:31:31;;;;;;;;;;;;;;;13.49;42.59;97401.84;5090727;28;19945;-90
2024/04/02 14:34:19;;;;;;;;;;;;;;;13.51;43.13;97403.06;5074509;28;20378;-90
2024/04/02 14:37:06;;;;;;;;;;;;;;;13.56;41.96;97397.38;5081830;28;19931;-89
2024/04/02 14:39:52;;;;;;;;;;;;;;;13.58;40.89;97402.50;5070021;28;19924;-89
2024/04/02 14:42:40;;;;;;;;;;;;;;;13.61;41.23;97402.59;5064610;28;19936;-89